createdAt,value
2022-12-08T00:02:01.186Z,24.33
2022-12-08T00:04:27.907Z,24.60
2022-12-08T00:07:12.754Z,24.67
2022-12-08T00:09:41.705Z,23.85
2022-12-08T00:16:13.041Z,27.52
2022-12-08T00:18:39.739Z,28.62
2022-12-08T00:21:06.326Z,26.12
2022-12-08T00:23:32.898Z,27.17
2022-12-08T00:26:04.038Z,26.35
2022-12-08T00:28:32.441Z,27.50
2022-12-08T00:34:00.980Z,27.23
2022-12-08T00:39:19.054Z,27.92
2022-12-08T00:45:48.569Z,27.90
2022-12-08T00:48:15.580Z,27.27
2022-12-08T00:50:42.127Z,26.73
2022-12-08T00:53:08.691Z,25.67
2022-12-08T00:55:35.314Z,26.17
2022-12-08T00:58:01.996Z,25.77
2022-12-08T01:00:47.298Z,24.95
2022-12-08T01:03:13.925Z,26.33
2022-12-08T01:05:40.515Z,26.27
2022-12-08T01:08:08.214Z,26.77
2022-12-08T01:16:51.048Z,25.80
2022-12-08T01:19:18.081Z,26.67
2022-12-08T01:21:46.197Z,24.83
2022-12-08T01:24:14.783Z,27.25
2022-12-08T01:26:41.612Z,26.50
2022-12-08T01:31:49.711Z,27.42
2022-12-08T01:34:19.223Z,27.92
2022-12-08T01:36:45.830Z,27.15
2022-12-08T01:39:17.955Z,29.90
2022-12-08T01:41:45.716Z,29.27
2022-12-08T01:45:02.918Z,28.92
2022-12-08T01:56:44.326Z,28.83
2022-12-08T01:59:25.189Z,27.40
2022-12-08T02:01:52.488Z,25.27
2022-12-08T02:04:40.752Z,26.65
2022-12-08T02:07:10.051Z,22.50
2022-12-08T02:09:38.716Z,22.95
2022-12-08T02:12:07.244Z,22.87
2022-12-08T02:15:23.703Z,25.58
2022-12-08T02:23:31.810Z,19.62
2022-12-08T02:26:36.144Z,18.12
2022-12-08T02:29:14.771Z,17.48
2022-12-08T02:32:26.718Z,17.05
2022-12-08T02:35:05.270Z,16.52
2022-12-08T02:38:00.972Z,16.52
2022-12-08T02:40:57.055Z,16.60
2022-12-08T02:43:39.664Z,16.95
2022-12-08T02:46:11.223Z,18.83
2022-12-08T02:48:59.762Z,19.58
2022-12-08T02:52:40.103Z,22.30
2022-12-08T03:10:13.918Z,23.35
2022-12-08T03:12:48.132Z,21.35
2022-12-08T03:15:18.400Z,21.42
2022-12-08T03:17:51.306Z,21.52
2022-12-08T03:20:21.489Z,24.92
2022-12-08T03:22:50.661Z,24.50
2022-12-08T03:29:23.795Z,25.35
2022-12-08T03:31:54.778Z,25.45
2022-12-08T03:48:33.144Z,27.90
2022-12-08T03:51:39.186Z,26.83
2022-12-08T03:54:49.460Z,26.75
2022-12-08T03:57:19.970Z,27.23
2022-12-08T04:11:09.082Z,38.13
2022-12-08T04:13:37.534Z,36.53
2022-12-08T04:16:10.277Z,35.28
2022-12-08T04:19:02.734Z,35.07
2022-12-08T04:21:29.316Z,38.95
2022-12-08T04:24:06.294Z,47.28
2022-12-08T04:26:35.698Z,52.70
2022-12-08T04:29:02.290Z,48.85
2022-12-08T04:31:28.909Z,45.08
2022-12-08T04:34:04.741Z,44.78
2022-12-08T04:42:10.898Z,24.55
2022-12-08T04:44:37.451Z,23.90
2022-12-08T04:47:04.364Z,21.95
2022-12-08T04:49:50.804Z,23.33
2022-12-08T04:52:17.411Z,22.73
2022-12-08T04:54:43.949Z,21.30
2022-12-08T04:57:10.505Z,22.35
2022-12-08T04:59:37.093Z,20.33
2022-12-08T05:02:03.810Z,21.80
2022-12-08T05:04:30.644Z,24.02
2022-12-08T05:06:57.520Z,24.23
2022-12-08T05:09:52.029Z,22.15
2022-12-08T05:12:38.790Z,21.73
2022-12-08T05:15:06.059Z,20.88
2022-12-08T05:17:32.651Z,20.95
2022-12-08T05:19:59.185Z,21.20
2022-12-08T05:22:25.726Z,20.48
2022-12-08T05:24:52.263Z,22.77
2022-12-08T05:27:18.786Z,22.45
2022-12-08T05:29:45.324Z,22.08
2022-12-08T05:32:11.855Z,22.37
2022-12-08T05:34:38.534Z,21.50
2022-12-08T05:37:05.075Z,30.05
2022-12-08T05:39:31.626Z,32.10
2022-12-08T05:41:59.569Z,33.88
2022-12-08T05:44:41.590Z,32.33
2022-12-08T05:47:08.130Z,27.65
2022-12-08T05:49:34.657Z,24.83
2022-12-08T05:52:01.178Z,22.95
2022-12-08T05:54:45.479Z,23.48
2022-12-08T05:57:37.791Z,25.95
2022-12-08T06:00:05.626Z,24.27
2022-12-08T06:02:35.822Z,23.08
2022-12-08T06:05:02.792Z,21.77
2022-12-08T06:07:29.338Z,22.65
2022-12-08T06:25:40.671Z,22.58
2022-12-08T06:28:07.372Z,23.12
2022-12-08T06:30:50.731Z,22.25
2022-12-08T06:35:43.692Z,27.10
2022-12-08T06:38:10.247Z,28.35
2022-12-08T06:40:36.810Z,28.50
2022-12-08T08:27:28.769Z,22.92
2022-12-08T08:29:55.324Z,23.00
2022-12-08T08:32:21.902Z,22.90
2022-12-08T08:34:48.504Z,21.95
2022-12-08T08:37:15.588Z,22.37
2022-12-08T08:39:43.133Z,20.60
2022-12-08T08:42:09.740Z,22.23
2022-12-08T08:44:37.482Z,20.98
2022-12-08T08:47:04.045Z,19.80
2022-12-08T08:49:30.647Z,19.95
2022-12-08T08:51:57.259Z,18.15
2022-12-08T08:54:35.826Z,18.55
2022-12-08T09:57:26.981Z,15.40
2022-12-08T09:59:59.916Z,15.18
2022-12-08T10:02:30.294Z,15.45
2022-12-08T10:04:58.754Z,15.48
2022-12-08T10:07:34.375Z,15.70
2022-12-08T10:42:53.492Z,13.57
2022-12-08T10:45:41.687Z,14.18
2022-12-08T10:48:25.457Z,13.38
2022-12-08T10:50:57.093Z,12.40
2022-12-08T10:53:26.547Z,12.40
2022-12-08T10:56:28.701Z,13.45
2022-12-08T11:30:36.903Z,11.60
2022-12-08T11:33:12.287Z,13.02
2022-12-08T11:35:41.624Z,12.27
2022-12-08T11:38:26.629Z,13.75
2022-12-08T11:41:07.518Z,13.15
2022-12-08T11:49:05.593Z,11.73
2022-12-08T11:51:34.906Z,12.00
2022-12-08T11:54:18.803Z,12.80
2022-12-08T11:56:52.854Z,12.90
2022-12-08T11:59:29.057Z,13.07
2022-12-08T12:01:59.824Z,13.20
2022-12-08T12:05:04.157Z,12.98
2022-12-08T12:07:58.852Z,12.50
2022-12-08T12:10:35.278Z,14.70
2022-12-08T12:13:23.545Z,13.35
2022-12-08T12:30:18.986Z,12.07
2022-12-08T12:32:58.301Z,12.68
2022-12-08T12:48:40.756Z,12.63
2022-12-08T12:51:44.878Z,11.77
2022-12-08T12:54:29.328Z,11.55
2022-12-08T12:57:17.472Z,11.00
2022-12-08T13:00:07.236Z,11.60
2022-12-08T13:02:39.988Z,12.15
2022-12-08T13:05:29.069Z,12.63
2022-12-08T13:07:59.668Z,11.55
2022-12-08T13:10:29.945Z,11.23
2022-12-08T13:13:10.364Z,12.77
2022-12-08T13:15:37.038Z,12.40
2022-12-08T13:18:05.232Z,13.00
2022-12-08T13:20:42.087Z,11.70
2022-12-08T13:23:46.945Z,12.63
2022-12-08T13:26:18.008Z,13.02
2022-12-08T13:34:12.909Z,13.20
2022-12-08T13:36:56.468Z,14.10
2022-12-08T13:42:03.676Z,13.00
2022-12-08T13:47:34.784Z,13.88
2022-12-08T13:59:26.931Z,11.80
2022-12-08T14:01:54.885Z,11.65
2022-12-08T14:04:53.931Z,12.48
2022-12-08T14:07:12.031Z,12.82
2022-12-08T14:09:40.260Z,12.65
2022-12-08T14:12:17.485Z,12.50
2022-12-08T14:15:02.608Z,11.30
2022-12-08T14:23:10.112Z,11.88
2022-12-08T14:42:02.865Z,11.50
2022-12-08T14:44:32.194Z,11.85
2022-12-08T14:47:07.279Z,10.82
2022-12-08T14:49:39.358Z,11.70
2022-12-08T14:52:12.428Z,11.07
2022-12-08T14:57:08.040Z,10.88
2022-12-08T14:59:37.892Z,10.98
2022-12-08T15:02:21.818Z,12.80
2022-12-08T15:05:29.192Z,15.82
2022-12-08T15:08:02.481Z,15.88
2022-12-08T15:10:32.091Z,14.35
2022-12-08T15:27:40.924Z,13.70
2022-12-08T15:30:15.670Z,15.07
2022-12-08T15:32:43.055Z,13.15
2022-12-08T15:35:18.739Z,13.90
2022-12-08T15:54:11.524Z,14.90
2022-12-08T15:57:17.232Z,15.18
2022-12-08T15:59:35.733Z,15.60
2022-12-08T16:02:02.416Z,15.98
2022-12-08T16:07:26.008Z,14.05
2022-12-08T16:09:53.463Z,16.15
2022-12-08T16:38:01.863Z,16.52
2022-12-08T16:40:28.459Z,23.05
2022-12-08T16:42:55.103Z,17.77
2022-12-08T16:45:37.629Z,21.90
2022-12-08T16:48:14.622Z,15.63
2022-12-08T16:50:45.795Z,14.93
2022-12-08T16:53:14.817Z,13.57
2022-12-08T16:55:47.478Z,12.50
2022-12-08T16:58:14.614Z,13.27
2022-12-08T17:00:41.903Z,16.17
2022-12-08T17:03:08.799Z,15.13
2022-12-08T17:05:36.477Z,12.95
2022-12-08T17:08:03.176Z,18.27
2022-12-08T17:10:31.890Z,14.05
2022-12-08T17:13:01.822Z,13.60
2022-12-08T17:15:28.881Z,14.30
2022-12-08T17:17:55.494Z,13.75
2022-12-08T17:20:25.365Z,12.65
2022-12-08T17:23:03.594Z,11.70
2022-12-08T17:28:37.118Z,11.10
2022-12-08T17:31:14.406Z,10.48
2022-12-08T17:33:41.728Z,10.75
2022-12-08T17:36:11.435Z,17.70
2022-12-08T17:41:27.680Z,18.73
2022-12-08T17:43:54.879Z,21.42
2022-12-08T17:46:23.067Z,20.62
2022-12-08T17:48:50.127Z,19.25
2022-12-08T17:51:17.091Z,19.52
2022-12-08T17:53:44.047Z,16.37
2022-12-08T17:56:19.024Z,14.43
2022-12-08T17:58:51.295Z,12.77
2022-12-08T18:01:20.894Z,12.02
2022-12-08T18:03:47.530Z,12.13
2022-12-08T18:06:14.197Z,13.32
2022-12-08T18:08:40.846Z,12.32
2022-12-08T18:11:14.205Z,12.45
2022-12-08T18:13:40.982Z,12.13
2022-12-08T18:16:07.749Z,12.45
2022-12-08T18:18:34.452Z,13.95
2022-12-08T18:21:02.560Z,21.65
2022-12-08T18:23:29.387Z,20.62
2022-12-08T18:25:55.989Z,12.90
2022-12-08T18:28:23.739Z,13.27
2022-12-08T18:30:50.768Z,12.60
2022-12-08T18:33:17.696Z,12.48
2022-12-08T18:35:44.496Z,12.43
2022-12-08T18:38:13.698Z,12.85
2022-12-08T18:40:43.239Z,12.30
2022-12-08T18:43:09.819Z,13.60
2022-12-08T18:45:44.253Z,12.70
2022-12-08T18:48:11.538Z,13.50
2022-12-08T18:50:43.044Z,14.98
2022-12-08T19:15:08.013Z,15.23
2022-12-08T19:17:34.954Z,14.13
2022-12-08T19:20:01.792Z,14.57
2022-12-08T19:22:29.267Z,13.27
2022-12-08T19:27:34.182Z,14.10
2022-12-08T19:30:00.829Z,14.18
2022-12-08T19:32:27.474Z,13.75
2022-12-08T19:34:54.317Z,13.60
2022-12-08T19:37:21.039Z,13.82
2022-12-08T19:40:06.311Z,13.52
2022-12-08T19:42:51.480Z,13.50
2022-12-08T19:45:21.615Z,14.45
2022-12-08T19:47:48.921Z,14.07
2022-12-08T19:50:35.494Z,15.10
2022-12-08T19:53:17.987Z,14.85
2022-12-08T19:55:44.609Z,14.48
2022-12-08T19:58:11.554Z,14.57
2022-12-08T20:00:39.268Z,13.52
2022-12-08T20:25:59.401Z,16.20
2022-12-08T20:28:25.951Z,14.95
2022-12-08T20:30:52.737Z,15.88
2022-12-08T20:33:19.926Z,16.27
2022-12-08T20:35:46.917Z,15.00
2022-12-08T20:38:16.041Z,15.27
2022-12-08T20:40:44.158Z,15.95
2022-12-08T20:43:10.792Z,15.75
2022-12-08T20:45:37.359Z,16.27
2022-12-08T20:48:07.007Z,16.30
2022-12-08T20:50:33.641Z,16.73
2022-12-08T20:53:00.501Z,16.42
2022-12-08T20:55:27.229Z,16.48
2022-12-08T20:57:54.007Z,15.98
2022-12-08T21:00:23.240Z,15.95
2022-12-08T21:02:56.058Z,16.42
2022-12-08T21:05:23.530Z,16.20
2022-12-08T21:07:50.236Z,17.02
2022-12-08T21:10:17.361Z,17.58
2022-12-08T21:12:43.984Z,16.83
2022-12-08T21:15:12.501Z,16.60
2022-12-08T21:17:39.463Z,18.35
2022-12-08T21:20:10.580Z,18.35
2022-12-08T21:22:40.523Z,17.37
2022-12-08T21:25:08.639Z,17.25
2022-12-08T21:30:17.202Z,17.83
2022-12-08T21:35:25.204Z,18.42
2022-12-08T21:37:51.967Z,18.30
2022-12-08T21:40:18.973Z,18.40
2022-12-08T21:43:42.131Z,17.58
2022-12-08T21:46:39.778Z,18.35
2022-12-08T21:49:07.077Z,18.65
2022-12-08T21:51:35.390Z,18.98
2022-12-08T21:54:01.971Z,19.25
2022-12-08T21:56:28.556Z,18.73
2022-12-08T21:58:55.256Z,21.20
2022-12-08T22:01:54.001Z,20.85
2022-12-08T22:04:21.899Z,20.37
2022-12-08T22:06:48.728Z,21.65
2022-12-08T22:09:15.568Z,20.83
2022-12-08T22:12:55.353Z,20.58
2022-12-08T22:16:21.572Z,20.92
2022-12-08T22:26:54.087Z,16.92
2022-12-08T22:29:26.986Z,18.85
2022-12-08T22:31:53.594Z,20.58
2022-12-08T22:34:20.249Z,18.98
2022-12-08T22:36:49.036Z,18.17
2022-12-08T22:39:15.739Z,18.37
2022-12-08T22:41:42.259Z,18.35
2022-12-08T22:44:09.135Z,19.02
2022-12-08T22:49:25.210Z,20.55
2022-12-08T22:51:52.912Z,19.75
2022-12-08T22:54:19.564Z,21.12
2022-12-08T22:56:46.310Z,19.52
2022-12-08T22:59:12.937Z,21.10
2022-12-08T23:02:26.580Z,20.92
2022-12-08T23:08:16.159Z,19.52
2022-12-08T23:10:44.373Z,19.92
2022-12-08T23:13:12.057Z,20.33
2022-12-08T23:15:39.607Z,20.02
2022-12-08T23:18:07.588Z,18.35
2022-12-08T23:21:09.714Z,19.20
2022-12-08T23:23:36.803Z,20.45
2022-12-08T23:26:04.467Z,21.60
2022-12-08T23:28:31.080Z,20.40
2022-12-08T23:30:57.763Z,21.58
2022-12-08T23:36:58.564Z,21.02
2022-12-08T23:39:25.198Z,21.55
2022-12-08T23:41:51.773Z,20.80
2022-12-08T23:44:18.634Z,20.95
2022-12-08T23:46:45.516Z,21.75
2022-12-08T23:49:12.388Z,22.13
2022-12-08T23:51:57.741Z,21.90
2022-12-08T23:54:24.349Z,20.85
2022-12-08T23:56:51.120Z,21.27
2022-12-08T23:59:17.704Z,22.92
